createdAt,value
2023-04-25T00:01:57.690Z,63.92
2023-04-25T00:04:24.953Z,63.94
2023-04-25T00:06:53.443Z,64.06
2023-04-25T00:09:20.614Z,63.97
2023-04-25T00:11:47.554Z,63.92
2023-04-25T00:14:14.729Z,63.92
2023-04-25T00:16:42.468Z,64.05
2023-04-25T00:19:10.631Z,64.09
2023-04-25T00:21:41.494Z,64.09
2023-04-25T00:24:08.841Z,64.15
2023-04-25T00:26:36.653Z,64.19
2023-04-25T00:29:03.637Z,64.32
2023-04-25T00:31:31.367Z,64.44
2023-04-25T00:33:58.422Z,64.52
2023-04-25T00:36:25.929Z,64.68
2023-04-25T00:38:54.368Z,64.78
2023-04-25T00:41:21.560Z,64.86
2023-04-25T00:43:49.525Z,64.90
2023-04-25T00:46:16.848Z,64.97
2023-04-25T00:48:43.893Z,65.05
2023-04-25T00:51:10.848Z,65.14
2023-04-25T00:53:37.823Z,65.21
2023-04-25T00:56:05.280Z,65.20
2023-04-25T00:58:32.265Z,65.18
2023-04-25T01:00:59.232Z,65.21
2023-04-25T01:03:26.332Z,65.27
2023-04-25T01:05:53.490Z,65.32
2023-04-25T01:08:20.423Z,65.39
2023-04-25T01:10:47.384Z,65.29
2023-04-25T01:13:14.468Z,65.45
2023-04-25T01:15:41.456Z,65.46
2023-04-25T01:18:08.528Z,65.54
2023-04-25T01:20:35.528Z,65.53
2023-04-25T01:23:04.095Z,65.45
2023-04-25T01:25:32.047Z,65.47
2023-04-25T01:27:59.794Z,65.43
2023-04-25T01:30:27.589Z,65.53
2023-04-25T01:32:58.649Z,65.56
2023-04-25T01:35:26.093Z,65.44
2023-04-25T01:37:56.173Z,65.56
2023-04-25T01:40:23.895Z,65.53
2023-04-25T01:42:51.209Z,65.58
2023-04-25T01:45:18.850Z,65.56
2023-04-25T01:47:50.133Z,65.65
2023-04-25T01:50:18.740Z,65.73
2023-04-25T01:52:46.027Z,65.66
2023-04-25T01:55:13.434Z,65.70
2023-04-25T01:57:49.153Z,65.65
2023-04-25T02:00:16.720Z,65.66
2023-04-25T02:02:43.759Z,65.55
2023-04-25T02:05:22.786Z,65.58
2023-04-25T02:07:49.903Z,65.58
2023-04-25T02:10:16.912Z,65.67
2023-04-25T02:12:55.697Z,65.62
2023-04-25T02:15:38.330Z,65.62
2023-04-25T02:18:17.363Z,65.68
2023-04-25T02:20:45.273Z,65.69
2023-04-25T02:23:12.320Z,65.65
2023-04-25T02:25:39.282Z,65.73
2023-04-25T02:28:06.269Z,65.74
2023-04-25T02:30:33.319Z,65.75
2023-04-25T02:33:01.445Z,65.81
2023-04-25T02:35:29.958Z,65.94
2023-04-25T02:37:56.894Z,66.07
2023-04-25T02:40:23.862Z,66.07
2023-04-25T02:42:50.855Z,66.08
2023-04-25T02:45:19.447Z,66.11
2023-04-25T02:47:46.509Z,66.16
2023-04-25T02:50:13.477Z,66.09
2023-04-25T02:52:40.588Z,66.11
2023-04-25T02:55:14.821Z,66.28
2023-04-25T02:57:41.825Z,66.36
2023-04-25T03:00:12.827Z,66.31
2023-04-25T03:02:39.864Z,66.40
2023-04-25T03:05:07.077Z,66.48
2023-04-25T03:07:34.437Z,66.57
2023-04-25T03:10:01.434Z,66.59
2023-04-25T03:12:28.916Z,66.68
2023-04-25T03:14:55.909Z,66.67
2023-04-25T03:17:22.952Z,66.68
2023-04-25T03:19:50.266Z,66.77
2023-04-25T03:22:17.317Z,66.69
2023-04-25T03:24:44.344Z,66.82
2023-04-25T03:27:11.418Z,66.93
2023-04-25T03:29:38.608Z,66.93
2023-04-25T03:32:06.511Z,66.92
2023-04-25T03:34:33.524Z,66.91
2023-04-25T03:37:01.123Z,66.88
2023-04-25T03:39:28.514Z,66.84
2023-04-25T03:41:56.598Z,66.81
2023-04-25T03:44:25.361Z,66.76
2023-04-25T03:46:52.399Z,66.82
2023-04-25T03:49:19.644Z,66.89
2023-04-25T03:52:01.632Z,66.79
2023-04-25T03:54:30.967Z,66.73
2023-04-25T03:57:06.909Z,66.68
2023-04-25T03:59:35.905Z,66.57
2023-04-25T04:02:03.621Z,66.55
2023-04-25T04:04:32.113Z,66.58
2023-04-25T04:07:00.800Z,66.56
2023-04-25T04:09:31.108Z,66.55
2023-04-25T04:11:59.828Z,66.62
2023-04-25T04:14:27.170Z,66.60
2023-04-25T04:16:55.466Z,66.44
2023-04-25T04:19:22.949Z,66.33
2023-04-25T04:22:08.553Z,66.35
2023-04-25T04:24:36.276Z,66.26
2023-04-25T04:27:07.043Z,66.37
2023-04-25T04:29:40.266Z,66.33
2023-04-25T04:32:12.910Z,66.19
2023-04-25T04:34:40.845Z,66.13
2023-04-25T04:37:08.185Z,66.07
2023-04-25T04:39:36.537Z,65.99
2023-04-25T04:42:13.818Z,65.89
2023-04-25T04:44:56.169Z,65.85
2023-04-25T04:47:37.966Z,65.79
2023-04-25T04:50:23.868Z,65.67
2023-04-25T04:53:09.463Z,65.59
2023-04-25T04:55:39.399Z,65.48
2023-04-25T04:58:22.803Z,65.40
2023-04-25T05:01:13.199Z,65.26
2023-04-25T05:04:05.660Z,65.20
2023-04-25T05:07:08.466Z,65.07
2023-04-25T05:10:01.588Z,64.96
2023-04-25T05:12:36.346Z,64.81
2023-04-25T05:15:22.070Z,64.70
2023-04-25T05:18:23.575Z,64.54
2023-04-25T05:21:10.990Z,64.40
2023-04-25T05:23:47.495Z,64.17
2023-04-25T05:26:46.558Z,64.05
2023-04-25T05:29:39.950Z,63.88
2023-04-25T05:32:16.575Z,63.95
2023-04-25T05:34:44.294Z,63.94
2023-04-25T05:37:20.453Z,63.87
2023-04-25T05:39:55.933Z,63.26
2023-04-25T05:42:45.862Z,61.90
2023-04-25T05:45:31.465Z,60.56
2023-04-25T05:48:09.791Z,59.60
2023-04-25T05:50:49.766Z,58.28
2023-04-25T05:53:34.989Z,56.67
2023-04-25T05:56:03.044Z,55.49
2023-04-25T05:58:30.369Z,54.22
2023-04-25T06:00:59.306Z,52.42
2023-04-25T06:03:26.636Z,51.09
2023-04-25T06:05:53.804Z,49.70
2023-04-25T06:08:21.110Z,48.45
2023-04-25T06:10:48.115Z,47.19
2023-04-25T06:13:15.312Z,46.24
2023-04-25T06:15:42.382Z,45.68
2023-04-25T06:18:09.544Z,45.03
2023-04-25T06:20:36.613Z,44.35
2023-04-25T06:23:03.712Z,43.54
2023-04-25T06:25:53.932Z,42.81
2023-04-25T06:28:23.144Z,42.53
2023-04-25T06:30:50.141Z,42.17
2023-04-25T06:33:18.694Z,41.91
2023-04-25T06:35:46.005Z,41.43
2023-04-25T06:38:14.249Z,41.12
2023-04-25T06:40:43.838Z,41.29
2023-04-25T06:43:11.452Z,41.34
2023-04-25T06:46:04.573Z,41.53
2023-04-25T06:48:33.168Z,41.49
2023-04-25T06:51:00.207Z,41.58
2023-04-25T06:53:27.336Z,41.72
2023-04-25T06:55:58.540Z,41.47
2023-04-25T06:58:31.128Z,41.22
2023-04-25T07:01:01.004Z,41.25
2023-04-25T07:03:28.566Z,40.93
2023-04-25T07:05:59.436Z,40.62
2023-04-25T07:08:26.574Z,40.47
2023-04-25T07:10:53.675Z,40.39
2023-04-25T07:13:21.146Z,40.70
2023-04-25T07:15:49.338Z,40.67
2023-04-25T07:18:17.175Z,40.83
2023-04-25T07:20:44.164Z,40.80
2023-04-25T07:23:11.515Z,40.56
2023-04-25T07:25:39.093Z,40.38
2023-04-25T07:28:06.294Z,40.31
2023-04-25T07:30:33.298Z,40.45
2023-04-25T07:33:04.157Z,40.53
2023-04-25T07:35:31.153Z,40.74
2023-04-25T07:37:58.376Z,41.07
2023-04-25T07:40:25.702Z,41.14
2023-04-25T07:42:59.605Z,41.54
2023-04-25T07:45:38.673Z,41.92
2023-04-25T07:48:06.048Z,42.55
2023-04-25T07:50:33.710Z,43.11
2023-04-25T07:53:01.123Z,43.40
2023-04-25T07:55:32.429Z,43.90
2023-04-25T07:58:13.009Z,44.38
2023-04-25T08:00:41.304Z,44.97
2023-04-25T08:03:40.776Z,45.45
2023-04-25T08:06:14.133Z,45.91
2023-04-25T08:08:51.806Z,45.94
2023-04-25T08:11:20.300Z,46.07
2023-04-25T08:13:47.269Z,46.15
2023-04-25T08:16:14.422Z,46.67
2023-04-25T08:18:41.514Z,47.00
2023-04-25T08:21:10.061Z,47.16
2023-04-25T08:23:37.102Z,46.98
2023-04-25T08:26:12.440Z,47.18
2023-04-25T08:28:39.536Z,47.47
2023-04-25T08:31:07.327Z,47.64
2023-04-25T08:33:41.671Z,47.76
2023-04-25T08:36:31.615Z,47.96
2023-04-25T08:39:06.421Z,47.98
2023-04-25T08:41:34.813Z,48.41
2023-04-25T08:44:02.154Z,48.51
2023-04-25T08:46:29.518Z,48.43
2023-04-25T08:49:16.751Z,48.08
2023-04-25T08:51:51.695Z,48.15
2023-04-25T08:54:34.486Z,48.17
2023-04-25T08:57:03.427Z,48.14
2023-04-25T08:59:31.221Z,48.30
2023-04-25T09:01:58.768Z,48.59
2023-04-25T09:04:26.289Z,48.76
2023-04-25T09:06:53.587Z,48.97
2023-04-25T09:09:20.727Z,48.91
2023-04-25T09:11:47.706Z,49.26
2023-04-25T09:14:19.269Z,49.72
2023-04-25T09:17:05.897Z,50.26
2023-04-25T09:19:42.172Z,50.63
2023-04-25T09:22:23.917Z,50.27
2023-04-25T09:24:52.366Z,50.07
2023-04-25T09:27:24.054Z,50.14
2023-04-25T09:30:04.164Z,49.89
2023-04-25T09:33:04.796Z,49.79
2023-04-25T09:35:36.066Z,49.68
2023-04-25T09:38:07.924Z,49.91
2023-04-25T09:40:53.425Z,49.69
2023-04-25T09:43:40.824Z,49.47
2023-04-25T09:46:12.492Z,49.30
2023-04-25T09:48:55.031Z,49.15
2023-04-25T09:51:31.368Z,48.99
2023-04-25T09:53:58.974Z,49.08
2023-04-25T09:56:33.163Z,49.19
2023-04-25T09:59:01.434Z,49.26
2023-04-25T10:01:28.473Z,49.30
2023-04-25T10:04:03.518Z,49.31
2023-04-25T10:06:45.273Z,49.30
2023-04-25T10:09:12.855Z,49.13
2023-04-25T10:11:39.954Z,49.28
2023-04-25T10:14:07.410Z,49.27
2023-04-25T10:16:34.357Z,49.20
2023-04-25T10:19:01.373Z,48.91
2023-04-25T10:21:28.626Z,48.60
2023-04-25T10:23:55.586Z,48.84
2023-04-25T10:26:23.167Z,48.89
2023-04-25T10:28:57.900Z,49.00
2023-04-25T10:31:24.896Z,49.30
2023-04-25T10:33:52.508Z,49.42
2023-04-25T10:36:20.590Z,49.50
2023-04-25T10:38:48.740Z,49.60
2023-04-25T10:41:15.758Z,49.46
2023-04-25T10:43:43.933Z,49.29
2023-04-25T10:46:20.846Z,48.84
2023-04-25T10:48:49.755Z,48.53
2023-04-25T10:51:24.582Z,48.36
2023-04-25T10:54:04.532Z,48.44
2023-04-25T10:56:42.621Z,48.20
2023-04-25T10:59:17.320Z,47.92
2023-04-25T11:01:48.318Z,47.97
2023-04-25T11:04:25.264Z,48.16
2023-04-25T11:07:10.889Z,47.98
2023-04-25T11:09:41.205Z,47.96
2023-04-25T11:12:12.984Z,48.00
2023-04-25T11:17:12.910Z,48.05
2023-04-25T11:19:40.030Z,47.88
2023-04-25T11:22:07.934Z,47.71
2023-04-25T11:24:36.543Z,47.75
2023-04-25T11:27:03.948Z,47.76
2023-04-25T11:29:31.781Z,47.72
2023-04-25T11:31:59.571Z,47.61
2023-04-25T11:34:27.156Z,47.63
2023-04-25T11:36:54.567Z,47.51
2023-04-25T11:39:21.575Z,47.80
2023-04-25T11:41:48.723Z,47.89
2023-04-25T11:44:19.762Z,48.10
2023-04-25T11:46:47.120Z,48.01
2023-04-25T11:49:14.893Z,47.92
2023-04-25T11:51:42.855Z,47.98
2023-04-25T11:54:10.215Z,48.25
2023-04-25T11:56:37.179Z,48.31
2023-04-25T11:59:05.841Z,48.36
2023-04-25T12:01:35.415Z,48.65
2023-04-25T12:04:25.398Z,48.62
2023-04-25T12:06:54.880Z,48.78
2023-04-25T12:09:28.434Z,48.90
2023-04-25T12:11:56.483Z,49.08
2023-04-25T12:14:32.488Z,49.15
2023-04-25T12:17:00.535Z,49.16
2023-04-25T12:19:28.040Z,48.99
2023-04-25T12:21:58.561Z,48.95
2023-04-25T12:24:28.682Z,49.27
2023-04-25T12:27:03.583Z,48.80
2023-04-25T12:29:47.906Z,48.81
2023-04-25T12:32:17.126Z,48.74
2023-04-25T12:34:44.090Z,48.63
2023-04-25T12:37:11.566Z,48.53
2023-04-25T12:39:38.814Z,48.34
2023-04-25T12:42:09.344Z,48.17
2023-04-25T12:44:36.775Z,48.29
2023-04-25T12:47:04.940Z,48.34
2023-04-25T12:49:33.252Z,48.19
2023-04-25T12:52:01.369Z,48.12
2023-04-25T12:54:29.349Z,48.28
2023-04-25T12:56:57.313Z,48.52
2023-04-25T12:59:25.193Z,49.11
2023-04-25T13:01:53.971Z,49.36
2023-04-25T13:04:23.052Z,49.87
2023-04-25T13:06:51.190Z,50.14
2023-04-25T13:09:19.075Z,50.28
2023-04-25T13:11:47.506Z,50.16
2023-04-25T13:14:15.152Z,50.10
2023-04-25T13:16:42.844Z,50.30
2023-04-25T13:19:12.790Z,50.62
2023-04-25T13:21:40.105Z,50.88
2023-04-25T13:24:07.740Z,51.15
2023-04-25T13:26:35.041Z,51.37
2023-04-25T13:29:04.960Z,51.46
2023-04-25T13:31:32.757Z,51.60
2023-04-25T13:34:00.040Z,51.80
2023-04-25T13:36:27.475Z,52.01
2023-04-25T13:38:54.613Z,52.17
2023-04-25T13:41:21.854Z,52.43
2023-04-25T13:43:49.594Z,52.55
2023-04-25T13:46:35.349Z,52.72
2023-04-25T13:49:12.305Z,52.86
2023-04-25T13:51:40.962Z,52.93
2023-04-25T13:54:08.916Z,52.91
2023-04-25T13:56:36.862Z,52.98
2023-04-25T13:59:04.250Z,52.95
2023-04-25T14:01:35.698Z,53.08
2023-04-25T14:04:05.231Z,53.24
2023-04-25T14:06:33.299Z,53.62
2023-04-25T14:09:02.378Z,53.59
2023-04-25T14:11:30.016Z,53.64
2023-04-25T14:13:57.582Z,53.63
2023-04-25T14:16:25.564Z,53.86
2023-04-25T14:18:53.376Z,53.80
2023-04-25T14:21:22.030Z,53.73
2023-04-25T14:23:49.958Z,53.94
2023-04-25T14:26:18.011Z,53.79
2023-04-25T14:28:45.623Z,53.83
2023-04-25T14:31:13.329Z,53.99
2023-04-25T14:33:43.883Z,53.85
2023-04-25T14:36:11.974Z,53.89
2023-04-25T14:38:39.701Z,54.16
2023-04-25T14:41:07.478Z,54.38
2023-04-25T14:43:35.019Z,54.70
2023-04-25T14:46:03.285Z,55.02
2023-04-25T14:48:31.273Z,55.10
2023-04-25T14:50:58.973Z,55.24
2023-04-25T14:53:26.544Z,55.44
2023-04-25T14:55:54.175Z,55.79
2023-04-25T14:58:21.726Z,55.67
2023-04-25T15:00:49.346Z,55.55
2023-04-25T15:03:18.530Z,55.65
2023-04-25T15:05:46.514Z,55.52
2023-04-25T15:08:14.101Z,55.55
2023-04-25T15:10:41.753Z,55.54
2023-04-25T15:13:09.566Z,55.52
2023-04-25T15:15:37.292Z,55.69
2023-04-25T15:18:05.024Z,55.30
2023-04-25T15:20:33.078Z,55.02
2023-04-25T15:23:00.884Z,54.95
2023-04-25T15:25:30.158Z,55.03
2023-04-25T15:27:57.723Z,55.04
2023-04-25T15:30:25.290Z,54.87
2023-04-25T15:32:53.125Z,54.61
2023-04-25T15:35:20.730Z,54.64
2023-04-25T15:37:48.342Z,54.90
2023-04-25T15:40:16.680Z,54.93
2023-04-25T15:42:48.542Z,55.01
2023-04-25T15:45:18.161Z,55.32
2023-04-25T15:47:45.949Z,55.27
2023-04-25T15:50:14.157Z,55.48
2023-04-25T15:52:42.702Z,55.77
2023-04-25T15:55:10.670Z,55.85
2023-04-25T15:57:39.486Z,56.23
2023-04-25T16:00:14.021Z,56.30
2023-04-25T16:02:42.274Z,56.31
2023-04-25T16:05:11.729Z,56.48
2023-04-25T16:07:43.248Z,56.47
2023-04-25T16:10:11.966Z,56.55
2023-04-25T16:12:40.268Z,56.58
2023-04-25T16:15:08.722Z,56.29
2023-04-25T16:17:36.809Z,56.38
2023-04-25T16:20:10.630Z,56.44
2023-04-25T16:22:39.305Z,56.49
2023-04-25T16:25:07.661Z,56.44
2023-04-25T16:27:35.903Z,56.54
2023-04-25T16:30:04.244Z,56.41
2023-04-25T16:32:32.141Z,56.28
2023-04-25T16:34:59.991Z,56.24
2023-04-25T16:37:28.242Z,56.31
2023-04-25T16:39:56.219Z,56.48
2023-04-25T16:42:24.133Z,56.56
2023-04-25T16:44:52.096Z,56.56
2023-04-25T16:47:20.697Z,56.68
2023-04-25T16:49:48.786Z,56.87
2023-04-25T16:52:16.910Z,56.96
2023-04-25T16:54:44.809Z,57.00
2023-04-25T16:57:12.987Z,57.12
2023-04-25T16:59:40.958Z,57.29
2023-04-25T17:02:11.911Z,57.41
2023-04-25T17:04:42.208Z,57.61
2023-04-25T17:07:10.129Z,57.61
2023-04-25T17:09:38.117Z,57.73
2023-04-25T17:12:07.747Z,57.75
2023-04-25T17:14:37.328Z,57.82
2023-04-25T17:17:05.526Z,57.83
2023-04-25T17:19:33.565Z,57.92
2023-04-25T17:22:02.059Z,57.78
2023-04-25T17:24:30.004Z,57.82
2023-04-25T17:26:57.970Z,58.01
2023-04-25T17:29:27.407Z,58.05
2023-04-25T17:31:57.672Z,57.91
2023-04-25T17:34:27.178Z,57.98
2023-04-25T17:36:55.325Z,58.00
2023-04-25T17:39:24.365Z,58.03
2023-04-25T17:41:52.784Z,58.07
2023-04-25T17:44:22.540Z,58.16
2023-04-25T17:46:50.453Z,58.01
2023-04-25T17:49:18.372Z,58.08
2023-04-25T17:51:46.360Z,58.19
2023-04-25T17:54:15.326Z,58.26
2023-04-25T17:56:45.382Z,58.32
2023-04-25T17:59:13.429Z,58.55
2023-04-25T18:01:45.571Z,58.64
2023-04-25T18:04:15.477Z,58.73
2023-04-25T18:06:45.634Z,58.70
2023-04-25T18:09:19.242Z,58.75
2023-04-25T18:11:47.846Z,58.84
2023-04-25T18:14:16.096Z,58.91
2023-04-25T18:16:44.745Z,59.08
2023-04-25T18:19:16.030Z,58.91
2023-04-25T18:21:44.624Z,59.09
2023-04-25T18:24:13.613Z,59.26
2023-04-25T18:26:41.627Z,59.21
2023-04-25T18:29:14.013Z,59.28
2023-04-25T18:31:49.374Z,59.37
2023-04-25T18:34:19.830Z,59.53
2023-04-25T18:36:48.899Z,59.66
2023-04-25T18:39:22.276Z,59.73
2023-04-25T18:41:58.803Z,59.82
2023-04-25T18:44:34.178Z,59.98
2023-04-25T18:47:02.433Z,60.08
2023-04-25T18:49:30.389Z,60.14
2023-04-25T18:51:58.677Z,60.21
2023-04-25T18:54:26.834Z,60.35
2023-04-25T18:56:56.376Z,60.31
2023-04-25T18:59:25.443Z,60.34
2023-04-25T19:01:54.593Z,60.56
2023-04-25T19:04:24.599Z,60.72
2023-04-25T19:06:52.875Z,60.80
2023-04-25T19:09:20.937Z,60.90
2023-04-25T19:11:48.819Z,60.97
2023-04-25T19:14:17.910Z,60.99
2023-04-25T19:16:46.358Z,61.11
2023-04-25T19:19:14.429Z,61.23
2023-04-25T19:21:42.591Z,61.27
2023-04-25T19:24:10.580Z,61.39
2023-04-25T19:26:39.623Z,61.54
2023-04-25T19:29:13.030Z,61.63
2023-04-25T19:31:43.621Z,61.73
2023-04-25T19:34:11.895Z,61.78
2023-04-25T19:36:40.806Z,61.82
2023-04-25T19:39:08.817Z,61.81
2023-04-25T19:41:37.861Z,62.00
2023-04-25T19:44:09.421Z,62.13
2023-04-25T19:46:37.729Z,62.01
2023-04-25T19:49:08.975Z,62.02
2023-04-25T19:51:37.812Z,62.05
2023-04-25T19:54:05.814Z,61.92
2023-04-25T19:56:33.858Z,61.86
2023-04-25T19:59:01.940Z,61.82
2023-04-25T20:01:30.096Z,61.80
2023-04-25T20:03:58.043Z,61.63
2023-04-25T20:06:25.711Z,61.58
2023-04-25T20:08:55.971Z,61.52
2023-04-25T20:11:23.172Z,61.46
2023-04-25T20:13:50.442Z,61.43
2023-04-25T20:16:20.080Z,61.49
2023-04-25T20:18:48.464Z,61.51
2023-04-25T20:21:17.115Z,61.51
2023-04-25T20:23:44.420Z,61.55
2023-04-25T20:26:12.791Z,61.59
2023-04-25T20:28:39.958Z,61.54
2023-04-25T20:31:07.218Z,61.58
2023-04-25T20:33:35.357Z,61.63
2023-04-25T20:36:02.409Z,61.66
2023-04-25T20:38:29.353Z,61.66
2023-04-25T20:40:56.682Z,61.59
2023-04-25T20:43:23.733Z,61.72
2023-04-25T20:45:50.978Z,61.68
2023-04-25T20:48:18.296Z,61.73
2023-04-25T20:50:46.381Z,61.63
2023-04-25T20:53:13.788Z,61.66
2023-04-25T20:55:42.095Z,61.66
2023-04-25T20:58:09.138Z,61.74
2023-04-25T21:00:36.477Z,61.85
2023-04-25T21:03:05.168Z,61.90
2023-04-25T21:05:32.427Z,61.97
2023-04-25T21:07:59.480Z,62.02
2023-04-25T21:10:26.724Z,62.11
2023-04-25T21:12:55.910Z,62.13
2023-04-25T21:15:22.964Z,62.13
2023-04-25T21:17:50.261Z,62.18
2023-04-25T21:20:18.244Z,62.23
2023-04-25T21:22:54.283Z,62.13
2023-04-25T21:25:29.183Z,62.18
2023-04-25T21:27:56.396Z,62.17
2023-04-25T21:30:24.069Z,61.94
2023-04-25T21:32:51.456Z,61.92
2023-04-25T21:35:19.549Z,61.87
2023-04-25T21:37:46.713Z,61.83
2023-04-25T21:40:14.324Z,61.86
2023-04-25T21:42:46.009Z,62.08
2023-04-25T21:45:13.030Z,62.15
2023-04-25T21:47:40.002Z,62.04
2023-04-25T21:50:08.093Z,62.00
2023-04-25T21:52:38.285Z,62.06
2023-04-25T21:55:05.919Z,62.17
2023-04-25T21:57:32.899Z,62.13
2023-04-25T21:59:59.846Z,62.24
2023-04-25T22:02:29.660Z,62.31
2023-04-25T22:04:56.950Z,62.34
2023-04-25T22:07:23.955Z,62.24
2023-04-25T22:09:54.927Z,62.29
2023-04-25T22:12:23.628Z,62.35
2023-04-25T22:14:51.188Z,62.36
2023-04-25T22:17:19.066Z,62.27
2023-04-25T22:19:47.105Z,62.25
2023-04-25T22:22:14.364Z,62.24
2023-04-25T22:24:42.373Z,62.23
2023-04-25T22:27:11.127Z,62.23
2023-04-25T22:29:38.165Z,62.04
2023-04-25T22:32:05.358Z,61.77
2023-04-25T22:34:32.355Z,61.81
2023-04-25T22:36:59.743Z,61.96
2023-04-25T22:39:26.849Z,62.07
2023-04-25T22:41:54.505Z,62.22
2023-04-25T22:44:22.456Z,62.26
2023-04-25T22:46:49.518Z,62.35
2023-04-25T22:49:17.430Z,62.43
2023-04-25T22:51:44.546Z,62.47
2023-04-25T22:54:11.484Z,62.38
2023-04-25T22:56:38.419Z,62.24
2023-04-25T22:59:05.342Z,62.28
2023-04-25T23:01:32.327Z,62.29
2023-04-25T23:03:59.761Z,62.30
2023-04-25T23:06:27.020Z,62.43
2023-04-25T23:08:54.137Z,62.42
2023-04-25T23:11:21.961Z,62.40
2023-04-25T23:13:48.935Z,62.51
2023-04-25T23:16:16.265Z,62.34
2023-04-25T23:18:43.312Z,62.36
2023-04-25T23:21:11.556Z,62.31
2023-04-25T23:23:38.876Z,62.71
2023-04-25T23:26:11.883Z,62.57
2023-04-25T23:28:41.608Z,62.61
2023-04-25T23:31:09.696Z,62.65
2023-04-25T23:33:36.753Z,62.54
2023-04-25T23:36:03.949Z,62.47
2023-04-25T23:38:31.080Z,62.50
2023-04-25T23:40:58.122Z,62.59
2023-04-25T23:43:25.104Z,63.00
2023-04-25T23:45:52.167Z,63.09
2023-04-25T23:48:19.209Z,63.07
2023-04-25T23:50:46.160Z,63.15
2023-04-25T23:53:13.293Z,63.15
2023-04-25T23:55:40.867Z,63.15
2023-04-25T23:58:08.143Z,63.18
